Burgos, Spain
Current Conditions -  °F | °C
As of 7:30 PM on Sunday 25 Jan 2015 (Local Time) from LEVT Reporting Station
Few Clouds Few Clouds  
Wind Chill: 30°   Ceiling: Unl
Heat Index: 36°   Visibility: 6mi
Dew Point: 32°   Wind: 7mph
Humidity: 87%   Direction: 30°NNE
Pressure: 30.48"   Gusts: NA
Location:  42.34°N, 3.7°W
Report Text: LEVT 251830Z 03006KT 9999 FEW030 02/00 Q1032
Loading
Personal Weather Stations






























Interactive Weather Map New forecast layout! Learn more

10-Day Weather Forecast

Advertisements
Track Severe Weather on mobile